• Join FlightAware (Why Join?)
  • Login
  • US Flag 
11:24AM EST


 

Airport Tracker/Info


-or-


 

Live Flight TrackerFlight Track Log ✈ UAL395 ✈ 27-Jun-2013 ✈ KIAD - KORD

Flight Track Log - Related Links

Times and Time Zones

All times are in EDT time to prevent confusion due to time zone crossing. See the UAL395 flight status page for this flight to view local times or setup timezone preferences in your user account.

Time Position Orientation Groundspeed Altitude Reporting Facility
EDT Latitude Longitude Course Direction KTS MPH feet Rate Location/Type
02:39PM 38.9333 -77.5333 270° West 185 213 1,700  Level Potomac TRACON
02:40PM 38.9333 -77.6167 270° West 247 284 4,300 2,880 Climbing Potomac TRACON
02:41PM 38.8781 -77.8369 260° West  Level FlightAware Approximate
02:42PM 38.8828 -77.9649 293° West  Level FlightAware Approximate
02:42PM 38.8842 -77.7144 237° Southwest 277 319 8,500  Level Washington Center
02:43PM 38.9147 -78.0920 288° West  Level FlightAware Approximate
02:43PM 38.8428 -77.8172 243° Southwest 284 327 10,800  Level Washington Center
02:44PM 38.9500 -78.2157 270° West  Level FlightAware Approximate
02:44PM 38.8303 -77.9261 262° West 326 375 13,400  Level Washington Center
02:45PM 38.8297 -78.0619 270° West 338 389 15,400 2,100 Climbing Washington Center
02:46PM 38.8625 -78.1831 289° West 361 415 17,600 2,340 Climbing Washington Center
02:47PM 38.8867 -78.3200 283° West 374 430 20,200 2,160 Climbing Washington Center
02:48PM 38.9106 -78.4594 282° West 392 451 22,000 1,680 Climbing Washington Center
02:49PM 38.9364 -78.5992 283° West 398 458 23,600 1,440 Climbing Washington Center
02:50PM 38.9597 -78.7444 282° West 403 464 25,000 1,320 Climbing Washington Center
02:51PM 38.9808 -78.8922 280° West 415 478 26,300 1,200 Climbing Washington Center
02:52PM 38.9867 -79.0500 273° West 429 494 27,400 960 Climbing Washington Center
02:53PM 38.9903 -79.2103 272° West 447 514 28,300 840 Climbing Washington Center
02:54PM 38.9958 -79.3736 273° West 453 521 29,200 1,320 Climbing Washington Center
02:55PM 38.9969 -79.5339 271° West 459 528 31,000 1,680 Climbing Washington Center
02:56PM 39.0014 -79.7106 272° West 459 528 32,700 1,500 Climbing Washington Center
02:57PM 39.0147 -79.8664 276° West 449 517 34,000 1,200 Climbing Washington Center
02:57PM 39.0431 -80.0028 285° West 440 506 35,000 1,020 Climbing Indianapolis Center
02:59PM 39.0544 -80.1436 276° West 434 499 36,100 1,080 Climbing Indianapolis Center
03:00PM 39.0667 -80.2967 276° West 432 497 37,300 900 Climbing Indianapolis Center
03:01PM 39.0819 -80.4786 276° West 426 490 38,000 300 Climbing Indianapolis Center
03:02PM 39.0936 -80.6281 276° West 423 487 38,000  Level Indianapolis Center
03:03PM 39.1056 -80.7792 276° West 426 490 38,000  Level Indianapolis Center
03:04PM 39.1172 -80.9317 276° West 429 494 38,000  Level Indianapolis Center
03:05PM 39.1381 -81.0814 280° West 430 495 38,000  Level Indianapolis Center
03:06PM 39.1828 -81.2222 292° West 429 494 38,000 -60 Level Indianapolis Center
03:07PM 39.2492 -81.3822 298° West 424 488 37,900  Descending Indianapolis Center
03:08PM 39.3044 -81.5186 298° West 430 495 38,000  Climbing Indianapolis Center
03:09PM 39.3589 -81.6542 297° West 429 494 38,000  Level Indianapolis Center
03:10PM 39.4133 -81.7889 298° West 425 489 38,000  Level Indianapolis Center
03:11PM 39.4675 -81.9247 297° West 425 489 38,000  Level Indianapolis Center
03:12PM 39.5222 -82.0603 298° West 425 489 38,000  Level Indianapolis Center
03:13PM 39.5800 -82.2072 297° West 420 483 38,000 -60 Level Indianapolis Center
03:14PM 39.6328 -82.3408 297° West 415 478 37,900 -60 Descending Indianapolis Center
03:15PM 39.6944 -82.4953 297° West 410 472 37,900  Level Indianapolis Center
03:16PM 39.7456 -82.6269 297° West 408 470 37,900  Level Indianapolis Center
03:17PM 39.7978 -82.7597 297° West 409 471 37,900  Level Indianapolis Center
03:18PM 39.8497 -82.8917 297° West 407 468 38,000  Climbing Indianapolis Center
03:19PM 39.9006 -83.0233 297° West 406 467 38,000  Level Indianapolis Center
03:20PM 39.9514 -83.1550 297° West 407 468 38,000  Level Indianapolis Center
03:21PM 40.0106 -83.3064 297° West 404 465 38,000  Level Indianapolis Center
03:22PM 40.0594 -83.4367 296° West 402 463 38,000  Level Indianapolis Center
03:23PM 40.1089 -83.5667 296° West 400 460 38,000 -60 Level Indianapolis Center
03:24PM 40.1586 -83.6967 297° West 399 459 37,900  Descending Indianapolis Center
03:25PM 40.2069 -83.8261 296° West 395 455 38,000  Climbing Indianapolis Center
03:26PM 40.2639 -83.9772 296° West 396 456 38,000  Level Indianapolis Center
03:27PM 40.3064 -84.1064 293° West 387 445 38,000 -540 Level Indianapolis Center
03:28PM 40.3292 -84.2456 282° West 389 448 37,000 -1,020 Descending Indianapolis Center
03:30PM 40.3681 -84.3764 291° West 393 452 35,900 -840 Descending Indianapolis Center
03:31PM 40.4431 -84.4750 315° West 381 438 35,300 -840 Descending Indianapolis Center
03:32PM 40.5183 -84.5750 315° West 382 440 34,200 -720 Descending Indianapolis Center
03:33PM 40.5967 -84.6775 315° West 390 449 33,900 -120 Descending Indianapolis Center
03:34PM 40.6867 -84.7981 315° West 393 452 34,000  Climbing Indianapolis Center
03:35PM 40.7644 -84.8997 315° West 392 451 33,900  Descending Indianapolis Center
03:35PM 40.8122 -84.9658 314° West 391 450 34,000  Climbing Chicago Center
03:36PM 40.8672 -85.0889 301° West 388 447 34,000  Level Chicago Center
03:37PM 40.9228 -85.2108 301° West 388 447 34,000  Level Chicago Center
03:38PM 40.9778 -85.3356 300° West 390 449 34,000  Level Chicago Center
03:39PM 41.0319 -85.4600 300° West 390 449 34,000 -720 Level Chicago Center
03:41PM 41.0869 -85.5844 300° West 390 449 32,600 -2,160 Descending Chicago Center
03:42PM 41.1422 -85.7114 300° West 396 456 29,600 -3,300 Descending Chicago Center
03:43PM 41.2108 -85.8672 300° West 405 466 25,900 -2,280 Descending Chicago Center
03:44PM 41.2667 -85.9978 300° West 407 468 25,000 -480 Descending Chicago Center
03:45PM 41.2950 -86.1489 284° West 421 484 25,000 -1,260 Level Chicago Center
03:46PM 41.3136 -86.2997 279° West 418 481 22,500 -2,160 Descending Chicago Center
03:47PM 41.3628 -86.4319 296° West 406 467 20,600 -2,400 Descending Chicago Center
03:48PM 41.4228 -86.5519 304° West 394 453 17,600 -3,300 Descending Chicago Center
03:49PM 41.4908 -86.6936 303° West 381 438 13,800 -2,700 Descending Chicago Center
03:50PM 41.5617 -86.7836 316° Northwest 384 442 12,000 -900 Descending Chicago Center
03:51PM 41.6567 -86.7936 356° North 352 405 12,000 -480 Level Chicago Center
03:52PM 41.7497 -86.8061 354° North 342 394 11,100 -540 Descending Chicago Center
03:53PM 41.8592 -86.8300 351° North 336 387 11,000 -60 Descending Chicago Center
03:54PM 41.9117 -86.9217 308° West 324 373 11,000 -240 Level Chicago Center
03:55PM 41.9517 -87.0253 297° West 317 365 10,600 -720 Descending Chicago Center
03:56PM 41.9839 -87.1131 296° West 275 316 9,600 -1,140 Descending Chicago Center
03:57PM 41.9847 -87.2089 271° West 260 299 8,300 -1,260 Descending Chicago Center
03:58PM 41.9808 -87.3197 267° West 251 289 7,000 -600 Descending Chicago Center
03:59PM 41.9831 -87.4075 272° West 239 275 7,100 -240 Climbing Chicago Center
04:00PM 41.9817 -87.4839 269° West 213 245 6,600 -660 Descending Chicago Center
04:01PM 41.9828 -87.5594 271° West 206 237 5,800 -1,260 Descending Chicago Center
04:02PM 41.9831 -87.6375 270° West 182 209 4,100 -1,680 Descending Chicago Center